Time;durP1;ratioP1;P1;durP2;ratioP2;P2;SDS_P1;SDS_P2;PMS_P1;PMS_P2;Temp;Humidity;BMP_temperature;BMP_pressure;BME280_temperature;BME280_humidity;BME280_pressure;Samples;Min_cycle;Max_cycle;Signal;HPM_P1;HPM_P2
2022/09/08 00:00:31;;;;;;;15.65;8.52;;;;;;;18.18;83.76;100843.75;5050680;28;20065;-72
2022/09/08 00:03:00;;;;;;;15.23;8.18;;;;;;;18.14;83.45;100832.34;5048671;28;20506;-72
2022/09/08 00:05:27;;;;;;;14.90;7.97;;;;;;;18.09;83.54;100826.81;5046721;28;20105;-73
2022/09/08 00:07:55;;;;;;;14.70;7.70;;;;;;;18.12;84.12;100817.09;5038182;28;20392;-73
2022/09/08 00:10:20;;;;;;;14.85;7.90;;;;;;;18.12;84.74;100811.53;5045736;28;20470;-66
2022/09/08 00:12:46;;;;;;;16.23;7.88;;;;;;;18.08;85.50;100814.03;5050211;28;20056;-69
2022/09/08 00:15:12;;;;;;;16.20;7.53;;;;;;;18.04;84.75;100807.34;5048915;28;20045;-68
2022/09/08 00:17:38;;;;;;;17.13;8.80;;;;;;;17.94;86.95;100810.16;5050023;28;20033;-73
2022/09/08 00:20:05;;;;;;;12.25;8.18;;;;;;;17.84;88.00;100818.50;5047282;28;20029;-74
2022/09/08 00:22:31;;;;;;;17.63;8.60;;;;;;;17.82;88.82;100826.31;5049708;28;20467;-74
2022/09/08 00:24:56;;;;;;;18.88;10.23;;;;;;;17.83;88.66;100828.78;5048065;28;20035;-75
2022/09/08 00:27:21;;;;;;;16.15;8.70;;;;;;;17.83;87.75;100826.03;5050326;28;20029;-74
2022/09/08 00:29:46;;;;;;;11.73;8.13;;;;;;;17.81;88.08;100831.03;5050435;28;20033;-75
2022/09/08 00:32:12;;;;;;;19.23;9.02;;;;;;;17.73;88.98;100833.53;5049179;28;20369;-74
2022/09/08 00:34:37;;;;;;;18.40;9.70;;;;;;;17.59;90.47;100825.75;5047733;28;20048;-67
2022/09/08 00:37:02;;;;;;;17.48;9.98;;;;;;;17.44;92.36;100816.59;5049822;28;20024;-72
2022/09/08 00:39:27;;;;;;;16.25;10.85;;;;;;;17.34;94.30;100817.41;5048691;28;20025;-72
2022/09/08 00:41:57;;;;;;;21.48;11.57;;;;;;;17.28;95.05;100822.09;5047752;28;20048;-73
2022/09/08 00:44:49;;;;;;;17.70;10.90;;;;;;;17.29;96.21;100812.69;5044550;28;20056;-73
2022/09/08 00:47:30;;;;;;;18.83;10.50;;;;;;;17.18;96.54;100812.94;5045824;28;20506;-73
2022/09/08 00:50:03;;;;;;;19.58;10.60;;;;;;;17.10;97.94;100811.53;5047478;28;20051;-73
2022/09/08 00:52:41;;;;;;;19.40;11.13;;;;;;;17.07;97.72;100812.09;5034387;28;20035;-74
2022/09/08 00:55:07;;;;;;;;;;;;;;;17.22;93.16;100797.41;5038976;28;20054;-73
2022/09/08 00:57:32;;;;;;;17.85;9.70;;;;;;;17.06;96.49;100786.28;5045557;28;19917;-72
2022/09/08 00:59:58;;;;;;;16.15;10.23;;;;;;;16.94;97.88;100779.34;5041933;28;20106;-72
2022/09/08 01:02:25;;;;;;;18.25;10.18;;;;;;;16.86;98.83;100786.25;5047830;28;20029;-72
2022/09/08 01:05:01;;;;;;;19.40;10.15;;;;;;;16.85;100.00;100779.88;5046342;28;20140;-70
2022/09/08 01:14:13;;;;;;;19.85;9.50;;;;;;;16.98;100.00;100772.09;4967374;28;20053;-72
2022/09/08 01:16:41;;;;;;;16.98;8.95;;;;;;;16.99;100.00;100766.31;4967401;28;20083;-73
2022/09/08 01:19:30;;;;;;;17.70;9.77;;;;;;;16.98;100.00;100766.56;5014333;28;20041;-73
2022/09/08 01:22:26;;;;;;;18.15;10.15;;;;;;;17.01;100.00;100771.56;5043675;28;20025;-74
2022/09/08 01:25:05;;;;;;;19.23;9.68;;;;;;;16.96;100.00;100763.25;5047977;28;20067;-66
2022/09/08 01:27:31;;;;;;;18.67;9.73;;;;;;;16.95;100.00;100765.19;5029440;28;20040;-74
2022/09/08 01:30:06;;;;;;;15.70;10.48;;;;;;;16.95;100.00;100767.97;5047891;28;20037;-73
2022/09/08 01:32:34;;;;;;;16.92;10.60;;;;;;;16.93;100.00;100766.56;5048281;28;20114;-71
2022/09/08 01:35:00;;;;;;;18.02;11.48;;;;;;;17.00;100.00;100754.09;5047977;28;20040;-73
2022/09/08 01:37:25;;;;;;;18.92;10.82;;;;;;;17.01;100.00;100738.28;5048828;28;20444;-74
2022/09/08 01:39:50;;;;;;;20.92;11.80;;;;;;;16.98;100.00;100734.13;5046500;28;20041;-67
2022/09/08 01:42:16;;;;;;;19.67;10.77;;;;;;;16.99;100.00;100726.63;5048100;28;20349;-74
2022/09/08 01:44:43;;;;;;;19.60;10.57;;;;;;;16.95;100.00;100722.75;5047866;28;20033;-74
2022/09/08 01:47:08;;;;;;;18.70;11.38;;;;;;;16.94;100.00;100721.91;5047794;28;20571;-72
2022/09/08 01:49:34;;;;;;;18.35;12.32;;;;;;;16.90;100.00;100726.34;5047296;28;20051;-72
2022/09/08 01:51:59;;;;;;;20.08;10.80;;;;;;;16.90;100.00;100720.78;5047075;28;20033;-73
2022/09/08 01:54:26;;;;;;;22.15;11.90;;;;;;;16.84;100.00;100735.78;5046483;28;20031;-72
2022/09/08 01:56:52;;;;;;;23.70;11.63;;;;;;;16.82;100.00;100746.28;5047379;28;20025;-74
2022/09/08 01:59:17;;;;;;;23.77;11.45;;;;;;;16.85;100.00;100735.47;5042634;28;20841;-74
2022/09/08 02:01:42;;;;;;;21.85;11.70;;;;;;;16.91;100.00;100733.53;5032583;28;20128;-72
2022/09/08 02:04:08;;;;;;;22.15;9.32;;;;;;;16.87;100.00;100710.22;5039982;28;20365;-73
2022/09/08 02:06:33;;;;;;;21.88;10.18;;;;;;;16.91;100.00;100702.19;5048762;28;20039;-71
2022/09/08 02:08:59;;;;;;;22.67;9.07;;;;;;;16.87;100.00;100699.13;5046893;28;20387;-71
2022/09/08 02:11:24;;;;;;;24.08;9.63;;;;;;;16.90;100.00;100706.09;5047984;28;20044;-73
2022/09/08 02:13:50;;;;;;;22.35;9.15;;;;;;;16.83;100.00;100698.88;5046194;28;20051;-73
2022/09/08 02:16:16;;;;;;;16.92;8.60;;;;;;;16.79;100.00;100696.94;5047506;28;20024;-74
2022/09/08 02:18:41;;;;;;;13.65;7.15;;;;;;;16.65;100.00;100695.75;5048185;28;20056;-73
2022/09/08 02:21:08;;;;;;;17.17;7.78;;;;;;;16.61;100.00;100696.31;5047177;28;20060;-73
2022/09/08 02:23:34;;;;;;;20.05;8.70;;;;;;;16.60;100.00;100689.09;5044061;28;20029;-68
2022/09/08 02:26:00;;;;;;;23.13;9.38;;;;;;;16.59;100.00;100681.06;5047803;28;20392;-74
2022/09/08 02:28:25;;;;;;;20.95;9.75;;;;;;;16.57;100.00;100680.50;5047912;28;20056;-74
2022/09/08 02:30:51;;;;;;;18.17;9.27;;;;;;;16.60;100.00;100671.63;5047580;28;20119;-73
2022/09/08 02:33:16;;;;;;;19.00;9.25;;;;;;;16.65;100.00;100671.63;5047292;28;20025;-75
2022/09/08 02:35:41;;;;;;;19.75;9.13;;;;;;;16.60;100.00;100666.91;5047031;28;20029;-67
2022/09/08 02:38:07;;;;;;;21.40;8.65;;;;;;;16.60;100.00;100658.59;5046720;28;20033;-74
2022/09/08 02:40:32;;;;;;;21.55;8.93;;;;;;;16.55;100.00;100666.06;5047405;28;20029;-73
2022/09/08 02:42:59;;;;;;;16.83;8.20;;;;;;;16.54;100.00;100665.25;5046730;28;20029;-75
2022/09/08 02:45:25;;;;;;;18.33;8.63;;;;;;;16.51;100.00;100665.78;5047364;28;20124;-74
2022/09/08 02:47:50;;;;;;;17.58;8.65;;;;;;;16.57;100.00;100669.41;5047827;28;20108;-66
2022/09/08 02:50:15;;;;;;;17.70;8.77;;;;;;;16.55;100.00;100678.00;5047237;28;20032;-74
2022/09/08 02:52:41;;;;;;;18.98;8.48;;;;;;;16.52;100.00;100678.53;5045821;28;20025;-75
2022/09/08 02:55:06;;;;;;;17.55;8.88;;;;;;;16.56;100.00;100693.53;5046691;28;20044;-70
2022/09/08 02:57:31;;;;;;;17.80;8.68;;;;;;;16.56;100.00;100685.19;5048225;28;20102;-74
2022/09/08 02:59:57;;;;;;;16.65;8.82;;;;;;;16.57;100.00;100677.72;5038886;28;20033;-74
2022/09/08 03:02:22;;;;;;;20.67;9.18;;;;;;;16.55;100.00;100677.16;5035207;28;20033;-68
2022/09/08 03:04:47;;;;;;;18.95;9.10;;;;;;;16.55;100.00;100686.31;5046881;28;20060;-75
2022/09/08 03:07:13;;;;;;;18.27;9.20;;;;;;;16.60;100.00;100688.28;5047236;28;20021;-74
2022/09/08 03:09:38;;;;;;;19.65;9.30;;;;;;;16.65;100.00;100691.03;5047371;28;20071;-70
2022/09/08 03:12:03;;;;;;;18.05;8.35;;;;;;;16.64;100.00;100685.78;5045874;28;20025;-74
2022/09/08 03:14:29;;;;;;;18.38;9.30;;;;;;;16.65;100.00;100688.28;5046714;28;20045;-75
2022/09/08 03:16:56;;;;;;;20.38;9.60;;;;;;;16.63;100.00;100693.28;5047014;28;20070;-68
2022/09/08 03:19:21;;;;;;;22.45;10.80;;;;;;;16.61;100.00;100684.38;5047091;28;20025;-73
2022/09/08 03:21:46;;;;;;;22.90;9.43;;;;;;;16.61;100.00;100687.16;5047345;28;20025;-73
2022/09/08 03:24:12;;;;;;;17.13;10.03;;;;;;;16.58;100.00;100682.19;5046358;28;20460;-74
2022/09/08 03:26:37;;;;;;;22.77;10.63;;;;;;;16.60;100.00;100679.94;5051623;28;20302;-74
2022/09/08 03:29:02;;;;;;;21.13;10.68;;;;;;;16.59;100.00;100684.66;5051186;28;20322;-72
2022/09/08 03:31:28;;;;;;;20.48;10.30;;;;;;;16.57;100.00;100683.25;5048454;28;20104;-74
2022/09/08 03:33:55;;;;;;;23.40;10.95;;;;;;;16.58;100.00;100680.22;5048654;28;20033;-74
2022/09/08 03:36:20;;;;;;;20.27;10.70;;;;;;;16.56;100.00;100678.81;5048581;28;20029;-69
2022/09/08 03:38:45;;;;;;;22.92;11.07;;;;;;;16.59;100.00;100672.75;5042066;28;20145;-66
2022/09/08 03:41:14;;;;;;;23.92;10.55;;;;;;;16.63;100.00;100670.25;5043873;28;20043;-74
2022/09/08 03:43:48;;;;;;;19.48;10.30;;;;;;;16.64;100.00;100683.00;5049126;28;20065;-73
2022/09/08 03:46:14;;;;;;;23.40;10.25;;;;;;;16.55;100.00;100678.00;5030976;28;20017;-74
2022/09/08 03:48:39;;;;;;;22.92;10.23;;;;;;;16.52;100.00;100680.47;5035051;28;20402;-75
2022/09/08 03:51:24;;;;;;;18.67;9.57;;;;;;;16.51;100.00;100689.91;5049498;28;20032;-75
2022/09/08 03:53:50;;;;;;;20.60;9.05;;;;;;;16.41;100.00;100707.34;5045948;28;20061;-75
2022/09/08 03:56:15;;;;;;;19.17;9.75;;;;;;;16.38;100.00;100719.00;5041444;28;20033;-75
2022/09/08 03:58:42;;;;;;;20.50;10.38;;;;;;;16.40;100.00;100714.00;5038993;28;20035;-74
2022/09/08 04:01:10;;;;;;;22.60;10.85;;;;;;;16.35;100.00;100698.19;5030288;28;20472;-71
2022/09/08 04:03:35;;;;;;;19.50;10.43;;;;;;;16.32;100.00;100690.44;5048484;28;20032;-73
2022/09/08 04:06:00;;;;;;;22.23;10.00;;;;;;;16.35;100.00;100683.50;5048763;28;20021;-73
2022/09/08 04:08:25;;;;;;;22.00;10.02;;;;;;;16.29;100.00;100673.50;5049550;28;20033;-74
2022/09/08 04:10:51;;;;;;;20.85;10.55;;;;;;;16.30;100.00;100672.41;5048674;28;20045;-66
2022/09/08 04:13:16;;;;;;;21.98;8.52;;;;;;;16.28;100.00;100681.00;5050123;28;20056;-73
2022/09/08 04:15:41;;;;;;;22.87;9.23;;;;;;;16.17;100.00;100679.31;5049914;28;20033;-73
2022/09/08 04:18:06;;;;;;;18.30;8.98;;;;;;;16.11;100.00;100662.91;5051019;28;20264;-73
2022/09/08 04:20:32;;;;;;;19.48;9.05;;;;;;;16.11;100.00;100669.28;5046098;28;20033;-73
2022/09/08 04:22:57;;;;;;;18.88;8.77;;;;;;;16.16;100.00;100665.69;5044883;28;20033;-71
2022/09/08 04:25:23;;;;;;;20.63;9.30;;;;;;;16.15;100.00;100675.13;5047774;28;20076;-75
2022/09/08 04:27:48;;;;;;;19.20;8.38;;;;;;;16.12;100.00;100682.06;5049310;28;20033;-67
2022/09/08 04:30:14;;;;;;;19.77;7.95;;;;;;;16.16;100.00;100679.56;5047041;28;20029;-74
2022/09/08 04:32:39;;;;;;;18.33;7.85;;;;;;;16.14;100.00;100684.53;5047477;28;20105;-66
2022/09/08 04:35:05;;;;;;;17.98;7.13;;;;;;;16.10;100.00;100695.34;5046438;28;20064;-75
2022/09/08 04:37:30;;;;;;;18.77;7.18;;;;;;;16.04;100.00;100691.72;5047893;28;20044;-75
2022/09/08 04:39:56;;;;;;;17.17;7.13;;;;;;;16.05;100.00;100689.78;5048734;28;20048;-73
2022/09/08 04:42:23;;;;;;;17.17;7.22;;;;;;;16.03;100.00;100692.81;5047163;28;20547;-73
2022/09/08 04:44:48;;;;;;;16.10;7.22;;;;;;;16.03;100.00;100698.34;5049129;28;20541;-68
2022/09/08 04:47:13;;;;;;;19.20;7.85;;;;;;;16.06;100.00;100695.03;5049568;28;20037;-74
2022/09/08 04:49:39;;;;;;;20.48;8.55;;;;;;;16.06;100.00;100696.97;5047961;28;20017;-74
2022/09/08 04:52:04;;;;;;;21.52;8.50;;;;;;;16.09;100.00;100693.66;5045776;28;20043;-74
2022/09/08 04:54:30;;;;;;;21.35;8.30;;;;;;;16.07;100.00;100702.25;5047865;28;20099;-75
2022/09/08 04:56:55;;;;;;;19.60;8.90;;;;;;;16.05;100.00;100704.44;5048027;28;20056;-75
2022/09/08 04:59:20;;;;;;;15.90;7.70;;;;;;;16.04;100.00;100704.72;5049313;28;20029;-74
2022/09/08 05:01:45;;;;;;;18.20;8.00;;;;;;;16.02;100.00;100701.41;5047821;28;20056;-74
2022/09/08 05:04:11;;;;;;;23.38;8.20;;;;;;;16.01;100.00;100708.03;5047669;28;20055;-75
2022/09/08 05:06:36;;;;;;;22.45;8.48;;;;;;;15.97;100.00;100702.22;5048443;28;20426;-74
2022/09/08 05:09:03;;;;;;;17.67;7.90;;;;;;;15.96;100.00;100696.94;5048583;28;20043;-75
2022/09/08 05:11:31;;;;;;;26.60;8.75;;;;;;;15.94;100.00;100697.22;5047849;28;20468;-75
2022/09/08 05:13:57;;;;;;;;;;;;;;;16.07;100.00;100702.25;5048350;28;20068;-72
2022/09/08 05:16:24;;;;;;;17.60;8.40;;;;;;;15.99;100.00;100705.53;5048083;28;20295;-68
2022/09/08 05:19:01;;;;;;;20.80;7.90;;;;;;;16.01;100.00;100713.56;5047675;28;20032;-69
2022/09/08 05:21:28;;;;;;;20.77;8.05;;;;;;;15.97;100.00;100720.78;5048160;28;20074;-71
2022/09/08 05:23:55;;;;;;;24.88;9.10;;;;;;;15.99;100.00;100715.78;5048083;28;20016;-69
2022/09/08 05:26:22;;;;;;;29.73;10.55;;;;;;;15.96;100.00;100713.53;5048234;28;20349;-75
2022/09/08 05:28:48;;;;;;;22.27;9.25;;;;;;;15.91;100.00;100717.13;5048306;28;20021;-75
2022/09/08 05:31:16;;;;;;;19.85;9.95;;;;;;;15.89;100.00;100715.75;5048048;28;20554;-74
2022/09/08 05:33:42;;;;;;;22.77;10.13;;;;;;;15.87;100.00;100713.25;5047582;28;20029;-73
2022/09/08 05:36:13;;;;;;;22.25;9.98;;;;;;;15.89;100.00;100704.66;5047371;28;20047;-67
2022/09/08 05:38:39;;;;;;;29.60;12.05;;;;;;;15.88;100.00;100705.78;5048068;28;20036;-75
2022/09/08 05:41:04;;;;;;;28.58;11.75;;;;;;;15.89;100.00;100710.19;5047134;28;20033;-76
2022/09/08 05:43:30;;;;;;;23.02;11.65;;;;;;;15.89;100.00;100705.50;5048230;28;20108;-71
2022/09/08 05:45:55;;;;;;;27.77;11.65;;;;;;;15.88;100.00;100703.84;5047774;28;20048;-74
2022/09/08 05:48:20;;;;;;;27.30;12.93;;;;;;;15.89;100.00;100707.44;5047631;28;20021;-75
2022/09/08 05:50:46;;;;;;;26.58;12.15;;;;;;;15.87;100.00;100704.94;5045390;28;20044;-67
2022/09/08 05:53:13;;;;;;;32.65;12.82;;;;;;;15.92;100.00;100707.75;5047876;28;20028;-72
2022/09/08 05:55:40;;;;;;;29.17;13.95;;;;;;;15.89;100.00;100697.19;5047802;28;20507;-71
2022/09/08 05:58:06;;;;;;;26.10;12.87;;;;;;;15.91;100.00;100714.34;5047081;28;20337;-71
2022/09/08 06:00:31;;;;;;;27.75;12.77;;;;;;;15.95;100.00;100714.66;5047660;28;20287;-75
2022/09/08 06:02:57;;;;;;;25.02;13.65;;;;;;;15.90;100.00;100712.69;5047479;28;20025;-69
2022/09/08 06:05:22;;;;;;;32.63;13.83;;;;;;;15.88;100.00;100714.91;5047348;28;20033;-73
2022/09/08 06:07:49;;;;;;;36.38;14.95;;;;;;;15.93;100.00;100714.94;5047753;28;20762;-74
2022/09/08 06:10:15;;;;;;;36.45;14.85;;;;;;;15.96;100.00;100713.53;5047762;28;20095;-74
2022/09/08 06:12:41;;;;;;;28.48;14.10;;;;;;;15.94;100.00;100713.81;5047280;28;20033;-73
2022/09/08 06:15:07;;;;;;;30.83;14.90;;;;;;;15.92;100.00;100716.03;5029252;28;20045;-74
2022/09/08 06:17:33;;;;;;;32.15;14.90;;;;;;;15.96;100.00;100716.31;5047181;28;20583;-69
2022/09/08 06:19:58;;;;;;;32.35;14.85;;;;;;;15.94;100.00;100705.50;5046345;28;20029;-72
2022/09/08 06:22:24;;;;;;;33.97;14.57;;;;;;;15.91;100.00;100707.97;5047745;28;20033;-72
2022/09/08 06:24:49;;;;;;;32.25;15.18;;;;;;;15.91;100.00;100703.28;5047278;28;20025;-72
2022/09/08 06:27:50;;;;;;;31.30;14.63;;;;;;;15.98;100.00;100709.41;5046938;28;20394;-72
2022/09/08 06:30:18;;;;;;;32.13;14.55;;;;;;;16.01;100.00;100703.31;5044172;28;20138;-75
2022/09/08 06:32:58;;;;;;;34.58;15.95;;;;;;;16.02;100.00;100710.56;5047404;28;20021;-75
2022/09/08 06:35:31;;;;;;;30.58;15.25;;;;;;;16.06;100.00;100710.81;5047136;28;20427;-67
2022/09/08 06:38:01;;;;;;;32.25;15.98;;;;;;;16.04;100.00;100713.88;5047047;28;20021;-71
2022/09/08 06:40:35;;;;;;;32.42;15.57;;;;;;;16.02;100.00;100718.88;5047326;28;20032;-73
2022/09/08 06:43:03;;;;;;;33.97;16.02;;;;;;;16.05;100.00;100710.00;5046619;28;20467;-67
2022/09/08 06:45:30;;;;;;;;;;;;;;;16.17;100.00;100714.47;5047650;28;20024;-73
2022/09/08 06:48:06;;;;;;;32.65;14.77;;;;;;;16.14;100.00;100723.34;5047061;28;19916;-68
2022/09/08 06:50:34;;;;;;;32.88;15.35;;;;;;;16.17;100.00;100722.78;5046517;28;20037;-76
2022/09/08 06:53:06;;;;;;;31.35;15.85;;;;;;;16.20;100.00;100730.56;5046910;28;20040;-75
2022/09/08 06:55:45;;;;;;;30.80;15.15;;;;;;;16.23;100.00;100730.03;5047057;28;20112;-74
2022/09/08 06:58:19;;;;;;;32.17;15.35;;;;;;;16.25;100.00;100719.50;5046941;28;20037;-75
2022/09/08 07:00:56;;;;;;;31.52;15.20;;;;;;;16.29;100.00;100731.72;5050964;28;20037;-72
2022/09/08 07:03:38;;;;;;;29.90;15.17;;;;;;;16.31;100.00;100732.25;5050556;28;20108;-66
2022/09/08 07:06:08;;;;;;;31.00;15.52;;;;;;;16.33;100.00;100730.91;5050693;28;20071;-77
2022/09/08 07:08:46;;;;;;;28.73;14.30;;;;;;;16.42;100.00;100724.81;5050549;28;20017;-76
2022/09/08 07:11:42;;;;;;;24.33;13.30;;;;;;;16.44;100.00;100720.66;5050163;28;20033;-71
2022/09/08 07:14:44;;;;;;;24.42;12.57;;;;;;;16.52;100.00;100728.44;5048249;28;20053;-73
2022/09/08 07:17:23;;;;;;;24.73;13.93;;;;;;;16.59;100.00;100725.44;5049134;28;20123;-76
2022/09/08 07:19:55;;;;;;;21.50;12.48;;;;;;;16.63;100.00;100725.72;5048367;28;20021;-73
2022/09/08 07:22:32;;;;;;;21.15;12.98;;;;;;;16.71;100.00;100730.72;5049183;28;20036;-75
2022/09/08 07:25:20;;;;;;;21.45;13.07;;;;;;;16.82;100.00;100729.66;5048207;28;20028;-71
2022/09/08 07:27:52;;;;;;;20.70;14.15;;;;;;;16.71;100.00;100727.94;5031038;28;20342;-69
2022/09/08 07:30:18;;;;;;;21.48;13.27;;;;;;;16.76;100.00;100736.31;5034612;28;20033;-71
2022/09/08 07:32:55;;;;;;;23.98;13.93;;;;;;;16.82;100.00;100737.97;5044812;28;20037;-76
2022/09/08 07:35:29;;;;;;;19.15;13.05;;;;;;;16.83;100.00;100734.09;5041236;28;20033;-66
2022/09/08 07:38:03;;;;;;;19.33;14.27;;;;;;;16.86;100.00;100739.09;5050825;28;20025;-76
2022/09/08 07:40:43;;;;;;;20.40;14.23;;;;;;;16.95;100.00;100729.13;5050956;28;20044;-76
2022/09/08 07:43:13;;;;;;;22.10;14.55;;;;;;;16.92;100.00;100724.09;5049781;28;20056;-75
2022/09/08 07:45:48;;;;;;;18.83;13.60;;;;;;;16.91;100.00;100725.22;5050731;28;20036;-77
2022/09/08 07:48:54;;;;;;;21.48;14.30;;;;;;;16.94;100.00;100726.63;5050157;28;20029;-77
2022/09/08 07:51:19;;;;;;;18.98;13.73;;;;;;;16.96;100.00;100729.94;5040255;28;20491;-75
2022/09/08 07:54:04;;;;;;;19.98;13.80;;;;;;;17.01;100.00;100735.50;5049536;28;20024;-70
2022/09/08 07:56:45;;;;;;;19.10;12.70;;;;;;;17.05;100.00;100733.84;5029440;28;20080;-69
2022/09/08 07:59:36;;;;;;;20.33;12.90;;;;;;;17.10;100.00;100736.63;5029464;28;20030;-76
2022/09/08 08:02:19;;;;;;;16.52;12.98;;;;;;;17.17;100.00;100747.44;5045853;28;20037;-74
2022/09/08 08:05:15;;;;;;;18.00;12.70;;;;;;;17.26;100.00;100745.78;5048681;28;20052;-76
2022/09/08 08:08:11;;;;;;;18.25;12.02;;;;;;;17.46;99.82;100750.50;5046154;28;20032;-69
2022/09/08 08:11:03;;;;;;;19.77;12.13;;;;;;;17.76;98.92;100746.88;5048321;28;20021;-76
2022/09/08 08:13:50;;;;;;;18.92;12.30;;;;;;;17.78;98.24;100744.63;5009466;28;20106;-75
2022/09/08 08:16:30;;;;;;;16.23;11.37;;;;;;;17.79;97.32;100746.28;5044069;28;20025;-74
2022/09/08 08:19:08;;;;;;;17.05;11.40;;;;;;;17.74;97.17;100751.84;5031211;28;20289;-73
2022/09/08 08:21:44;;;;;;;;;;;;;;;17.84;97.16;100749.91;5032989;28;20033;-76
2022/09/08 08:24:34;;;;;;;14.63;10.02;;;;;;;17.91;95.55;100746.00;5029580;28;20019;-75
2022/09/08 08:27:06;;;;;;;13.15;10.00;;;;;;;18.02;95.98;100747.63;5029814;28;20042;-72
2022/09/08 08:29:52;;;;;;;14.93;9.80;;;;;;;18.28;94.02;100748.38;5041716;28;20108;-68
2022/09/08 08:32:27;;;;;;;12.50;8.75;;;;;;;18.30;93.45;100737.81;5029399;28;20044;-67
2022/09/08 08:34:55;;;;;;;11.18;8.02;;;;;;;18.17;91.38;100736.47;5039024;28;20379;-74
2022/09/08 08:37:24;;;;;;;11.35;7.28;;;;;;;18.18;88.82;100734.50;5038902;28;20856;-75
2022/09/08 08:39:54;;;;;;;12.70;6.93;;;;;;;18.19;89.57;100750.06;5025642;28;20468;-72
2022/09/08 08:43:00;;;;;;;9.50;6.88;;;;;;;18.36;88.13;100754.19;5028261;28;20191;-70
2022/09/08 08:46:00;;;;;;;9.77;5.78;;;;;;;18.32;86.74;100747.50;4968209;28;20103;-71
2022/09/08 08:48:53;;;;;;;7.50;5.18;;;;;;;18.22;86.50;100752.28;5030968;28;20037;-69
2022/09/08 08:51:32;;;;;;;11.20;6.63;;;;;;;18.19;85.14;100755.63;5028530;28;20029;-66
2022/09/08 08:54:28;;;;;;;10.75;6.80;;;;;;;18.47;85.21;100757.72;5028370;28;20040;-70
2022/09/08 08:56:58;;;;;;;8.93;5.72;;;;;;;19.77;79.86;100749.00;5039067;28;20044;-75
2022/09/08 08:59:51;;;;;;;8.15;5.60;;;;;;;20.90;75.51;100738.94;5029405;28;20056;-69
2022/09/08 09:02:25;;;;;;;9.00;5.53;;;;;;;21.84;72.45;100751.06;5029881;28;21526;-72
2022/09/08 09:05:06;;;;;;;9.98;5.90;;;;;;;21.69;72.74;100747.41;5027137;28;20416;-69
2022/09/08 09:07:47;;;;;;;6.75;5.03;;;;;;;22.91;65.21;100744.09;5037553;28;20114;-74
2022/09/08 09:10:36;;;;;;;9.63;5.38;;;;;;;23.23;66.12;100737.41;5011258;28;20873;-69
2022/09/08 09:13:20;;;;;;;9.45;5.72;;;;;;;23.37;65.88;100733.69;5025234;28;20040;-70
2022/09/08 09:16:03;;;;;;;10.70;6.22;;;;;;;22.34;67.26;100735.25;5033166;28;20072;-75
2022/09/08 09:19:00;;;;;;;9.05;5.60;;;;;;;21.33;69.73;100746.38;5020018;28;20029;-74
2022/09/08 09:21:53;;;;;;;10.02;6.20;;;;;;;20.44;74.02;100752.69;5028517;28;20037;-74
2022/09/08 09:24:22;;;;;;;12.93;6.30;;;;;;;19.75;75.18;100745.69;5046553;28;20073;-74
2022/09/08 09:26:49;;;;;;;10.35;6.65;;;;;;;19.34;78.98;100757.19;5039104;28;20090;-67
2022/09/08 09:29:21;;;;;;;11.18;6.15;;;;;;;19.05;80.39;100755.16;5043705;28;20086;-76
2022/09/08 09:31:58;;;;;;;11.15;6.90;;;;;;;18.92;81.32;100756.66;5038117;28;20025;-74
2022/09/08 09:34:45;;;;;;;11.27;6.78;;;;;;;18.98;82.11;100753.84;5028452;28;20041;-74
2022/09/08 09:37:37;;;;;;;11.32;6.72;;;;;;;19.99;77.30;100754.91;5025646;28;20132;-74
2022/09/08 09:40:13;;;;;;;8.82;5.15;;;;;;;22.44;68.09;100743.41;5017488;28;20069;-72
2022/09/08 09:43:16;;;;;;;9.93;4.63;;;;;;;23.44;62.41;100740.53;5034342;28;20454;-66
2022/09/08 09:46:06;;;;;;;9.82;4.00;;;;;;;22.16;65.01;100745.44;5030790;28;20076;-72
2022/09/08 09:49:15;;;;;;;8.77;3.90;;;;;;;22.02;66.27;100741.75;5041876;28;20055;-71
2022/09/08 09:51:57;;;;;;;9.88;3.92;;;;;;;21.64;65.71;100741.91;5024765;28;20439;-72
2022/09/08 09:54:45;;;;;;;7.35;3.50;;;;;;;20.86;69.20;100748.22;5034096;28;20036;-70
2022/09/08 09:57:29;;;;;;;8.13;3.35;;;;;;;20.88;70.59;100743.16;5032461;28;20052;-69
2022/09/08 10:00:00;;;;;;;8.68;3.00;;;;;;;21.65;64.19;100743.59;5026512;28;20629;-73
2022/09/08 10:02:32;;;;;;;8.18;3.00;;;;;;;21.11;66.39;100742.25;5031874;28;20041;-70
2022/09/08 10:05:25;;;;;;;9.23;3.00;;;;;;;21.79;68.92;100732.41;5032721;28;20480;-73
2022/09/08 10:08:28;;;;;;;7.82;2.17;;;;;;;24.23;57.38;100737.00;5045480;28;20116;-73
2022/09/08 10:11:05;;;;;;;6.40;2.28;;;;;;;23.06;59.30;100742.88;5043125;28;20166;-72
2022/09/08 10:13:49;;;;;;;7.33;2.20;;;;;;;22.11;61.34;100747.50;5048006;28;20055;-70
2022/09/08 10:16:35;;;;;;;7.03;2.67;;;;;;;21.29;63.86;100750.88;5047819;28;20583;-72
2022/09/08 10:19:22;;;;;;;7.20;2.50;;;;;;;20.73;66.64;100742.28;5045655;28;20593;-72
2022/09/08 10:22:06;;;;;;;7.83;2.47;;;;;;;21.57;65.64;100747.06;5048033;28;20036;-69
2022/09/08 10:24:48;;;;;;;8.18;2.35;;;;;;;24.58;59.73;100746.38;5044955;28;20292;-70
2022/09/08 10:27:41;;;;;;;9.75;2.53;;;;;;;25.30;53.44;100738.47;5046611;28;20025;-75
2022/09/08 10:30:20;;;;;;;10.05;2.63;;;;;;;24.79;54.28;100746.56;5046998;28;20114;-75
2022/09/08 10:33:28;;;;;;;9.45;2.60;;;;;;;26.70;49.62;100746.06;5047484;28;20092;-73
2022/09/08 10:36:14;;;;;;;9.95;2.97;;;;;;;25.55;50.83;100748.03;5051353;28;20059;-74
2022/09/08 10:39:17;;;;;;;10.80;2.78;;;;;;;24.31;54.02;100750.22;5042473;28;20128;-73
2022/09/08 10:42:21;;;;;;;13.05;2.67;;;;;;;23.45;56.61;100738.56;5051135;28;20037;-70
2022/09/08 10:44:53;;;;;;;9.85;2.63;;;;;;;22.79;56.48;100750.19;5050953;28;20049;-72
2022/09/08 10:47:27;;;;;;;12.52;3.08;;;;;;;22.69;57.72;100744.00;5049878;28;20033;-65
2022/09/08 10:50:10;;;;;;;12.50;3.10;;;;;;;22.96;56.89;100743.13;5038863;28;20115;-71
2022/09/08 10:52:54;;;;;;;13.07;3.40;;;;;;;22.92;57.32;100734.53;5051795;28;20043;-73
2022/09/08 10:55:29;;;;;;;12.63;3.20;;;;;;;23.34;54.93;100731.56;5046964;28;20118;-67
2022/09/08 10:58:42;;;;;;;10.10;2.83;;;;;;;23.78;56.21;100734.34;5045648;28;20045;-72
2022/09/08 11:01:25;;;;;;;10.07;3.00;;;;;;;24.77;52.93;100729.19;5050173;28;20044;-72
2022/09/08 11:04:16;;;;;;;10.70;3.30;;;;;;;27.27;47.54;100728.56;5030388;28;20102;-72
2022/09/08 11:07:06;;;;;;;9.70;3.05;;;;;;;28.81;43.20;100719.66;5017063;28;20033;-72
2022/09/08 11:10:02;;;;;;;12.18;2.90;;;;;;;29.62;41.21;100726.91;5050846;28;20025;-69
2022/09/08 11:12:35;;;;;;;12.90;3.70;;;;;;;28.74;41.57;100733.56;5041237;28;24493;-72
2022/09/08 11:15:33;;;;;;;15.10;3.78;;;;;;;29.14;41.19;100720.25;5036074;28;20041;-73
2022/09/08 11:18:20;;;;;;;12.35;3.78;;;;;;;28.67;41.79;100732.16;5048948;28;20045;-73
2022/09/08 11:20:51;;;;;;;15.18;4.15;;;;;;;28.52;40.85;100726.41;5048088;28;20041;-70
2022/09/08 11:23:33;;;;;;;13.80;3.97;;;;;;;28.20;42.31;100731.81;5049348;28;20033;-75
2022/09/08 11:26:10;;;;;;;15.35;4.40;;;;;;;26.63;44.52;100731.69;5048770;28;20361;-73
2022/09/08 11:29:11;;;;;;;14.20;4.57;;;;;;;26.25;46.60;100726.91;5048282;28;20056;-71
2022/09/08 11:31:53;;;;;;;14.68;4.50;;;;;;;26.54;45.12;100717.66;5049424;28;20045;-72
2022/09/08 11:34:33;;;;;;;17.30;4.50;;;;;;;25.63;48.41;100713.41;5046449;28;20033;-71
2022/09/08 11:37:23;;;;;;;12.43;4.22;;;;;;;24.90;50.17;100713.34;5036112;28;20034;-71
2022/09/08 11:40:36;;;;;;;14.40;4.32;;;;;;;24.27;53.97;100712.72;5044636;28;20032;-71
2022/09/08 11:43:20;;;;;;;14.23;4.38;;;;;;;23.53;61.06;100713.38;5050016;28;20048;-70
2022/09/08 11:45:57;;;;;;;13.57;5.00;;;;;;;22.87;64.78;100708.59;5043366;28;20048;-71
2022/09/08 11:48:41;;;;;;;11.68;4.85;;;;;;;22.31;66.53;100710.72;5030861;28;20071;-67